sensor_id;sensor_type;location;lat;lon;timestamp;P1;durP1;ratioP1;P2;durP2;ratioP2
70560;SDS011;58109;53.570;10.084;2023-05-15T00:02:06;10.30;;;6.97;;
70560;SDS011;58109;53.570;10.084;2023-05-15T00:04:35;10.73;;;6.00;;
70560;SDS011;58109;53.570;10.084;2023-05-15T00:07:02;15.87;;;7.70;;
70560;SDS011;58109;53.570;10.084;2023-05-15T00:09:30;12.10;;;7.13;;
70560;SDS011;58109;53.570;10.084;2023-05-15T00:11:56;9.60;;;7.10;;
70560;SDS011;58109;53.570;10.084;2023-05-15T00:14:21;12.17;;;6.30;;
70560;SDS011;58109;53.570;10.084;2023-05-15T00:16:48;18.23;;;8.30;;
70560;SDS011;58109;53.570;10.084;2023-05-15T00:19:13;11.87;;;7.33;;
70560;SDS011;58109;53.570;10.084;2023-05-15T00:21:38;8.97;;;7.93;;
70560;SDS011;58109;53.570;10.084;2023-05-15T00:24:04;17.97;;;8.07;;
70560;SDS011;58109;53.570;10.084;2023-05-15T00:26:30;12.47;;;7.53;;
70560;SDS011;58109;53.570;10.084;2023-05-15T00:28:55;12.77;;;7.53;;
70560;SDS011;58109;53.570;10.084;2023-05-15T00:31:20;12.00;;;7.80;;
70560;SDS011;58109;53.570;10.084;2023-05-15T00:33:46;19.77;;;9.27;;
70560;SDS011;58109;53.570;10.084;2023-05-15T00:36:11;21.00;;;8.30;;
70560;SDS011;58109;53.570;10.084;2023-05-15T00:38:39;13.47;;;7.63;;
70560;SDS011;58109;53.570;10.084;2023-05-15T00:41:07;13.97;;;7.67;;
70560;SDS011;58109;53.570;10.084;2023-05-15T00:43:34;15.23;;;7.60;;
70560;SDS011;58109;53.570;10.084;2023-05-15T00:46:00;21.83;;;7.30;;
70560;SDS011;58109;53.570;10.084;2023-05-15T00:48:26;12.30;;;6.60;;
70560;SDS011;58109;53.570;10.084;2023-05-15T00:50:56;11.90;;;7.10;;
70560;SDS011;58109;53.570;10.084;2023-05-15T00:53:22;11.43;;;7.40;;
70560;SDS011;58109;53.570;10.084;2023-05-15T00:55:48;14.93;;;7.40;;
70560;SDS011;58109;53.570;10.084;2023-05-15T00:58:14;12.73;;;7.30;;
70560;SDS011;58109;53.570;10.084;2023-05-15T01:00:42;17.63;;;8.07;;
70560;SDS011;58109;53.570;10.084;2023-05-15T01:03:10;11.13;;;7.23;;
70560;SDS011;58109;53.570;10.084;2023-05-15T01:05:35;13.10;;;7.90;;
70560;SDS011;58109;53.570;10.084;2023-05-15T01:10:56;13.20;;;7.73;;
70560;SDS011;58109;53.570;10.084;2023-05-15T01:13:22;15.07;;;7.13;;
70560;SDS011;58109;53.570;10.084;2023-05-15T01:15:51;14.30;;;7.57;;
70560;SDS011;58109;53.570;10.084;2023-05-15T01:18:18;9.43;;;6.40;;
70560;SDS011;58109;53.570;10.084;2023-05-15T01:20:49;12.73;;;7.10;;
70560;SDS011;58109;53.570;10.084;2023-05-15T01:23:19;11.87;;;7.57;;
70560;SDS011;58109;53.570;10.084;2023-05-15T01:28:50;16.20;;;7.20;;
70560;SDS011;58109;53.570;10.084;2023-05-15T01:31:23;11.60;;;7.40;;
70560;SDS011;58109;53.570;10.084;2023-05-15T01:33:55;13.07;;;6.70;;
70560;SDS011;58109;53.570;10.084;2023-05-15T01:36:26;21.27;;;7.60;;
70560;SDS011;58109;53.570;10.084;2023-05-15T01:38:55;10.13;;;6.47;;
70560;SDS011;58109;53.570;10.084;2023-05-15T01:43:51;15.60;;;8.00;;
70560;SDS011;58109;53.570;10.084;2023-05-15T01:46:20;12.63;;;7.77;;
70560;SDS011;58109;53.570;10.084;2023-05-15T01:48:48;12.47;;;7.53;;
70560;SDS011;58109;53.570;10.084;2023-05-15T01:51:15;9.30;;;7.17;;
70560;SDS011;58109;53.570;10.084;2023-05-15T01:53:41;11.53;;;7.43;;
70560;SDS011;58109;53.570;10.084;2023-05-15T01:56:10;14.73;;;8.40;;
70560;SDS011;58109;53.570;10.084;2023-05-15T01:58:39;15.43;;;7.57;;
70560;SDS011;58109;53.570;10.084;2023-05-15T02:01:05;13.90;;;7.77;;
70560;SDS011;58109;53.570;10.084;2023-05-15T02:03:34;14.37;;;7.63;;
70560;SDS011;58109;53.570;10.084;2023-05-15T02:06:00;10.60;;;7.23;;
70560;SDS011;58109;53.570;10.084;2023-05-15T02:08:26;24.77;;;6.83;;
70560;SDS011;58109;53.570;10.084;2023-05-15T02:10:53;15.40;;;8.40;;
70560;SDS011;58109;53.570;10.084;2023-05-15T02:13:40;13.67;;;7.33;;
70560;SDS011;58109;53.570;10.084;2023-05-15T02:16:06;16.77;;;8.43;;
70560;SDS011;58109;53.570;10.084;2023-05-15T02:18:36;24.93;;;8.53;;
70560;SDS011;58109;53.570;10.084;2023-05-15T02:21:02;12.67;;;7.73;;
70560;SDS011;58109;53.570;10.084;2023-05-15T02:23:30;14.67;;;8.47;;
70560;SDS011;58109;53.570;10.084;2023-05-15T02:28:27;18.57;;;9.23;;
70560;SDS011;58109;53.570;10.084;2023-05-15T02:31:07;21.37;;;9.70;;
70560;SDS011;58109;53.570;10.084;2023-05-15T02:33:44;19.90;;;7.57;;
70560;SDS011;58109;53.570;10.084;2023-05-15T02:36:19;15.17;;;7.47;;
70560;SDS011;58109;53.570;10.084;2023-05-15T02:38:48;14.23;;;8.43;;
70560;SDS011;58109;53.570;10.084;2023-05-15T02:41:18;15.07;;;8.17;;
70560;SDS011;58109;53.570;10.084;2023-05-15T02:43:45;14.47;;;8.43;;
70560;SDS011;58109;53.570;10.084;2023-05-15T02:46:10;17.53;;;9.40;;
70560;SDS011;58109;53.570;10.084;2023-05-15T02:48:37;11.00;;;7.67;;
70560;SDS011;58109;53.570;10.084;2023-05-15T02:51:04;19.40;;;9.00;;
70560;SDS011;58109;53.570;10.084;2023-05-15T02:53:30;16.10;;;8.87;;
70560;SDS011;58109;53.570;10.084;2023-05-15T02:55:59;20.40;;;8.83;;
70560;SDS011;58109;53.570;10.084;2023-05-15T02:58:26;19.03;;;8.27;;
70560;SDS011;58109;53.570;10.084;2023-05-15T03:00:51;13.80;;;8.57;;
70560;SDS011;58109;53.570;10.084;2023-05-15T03:03:20;19.00;;;9.67;;
70560;SDS011;58109;53.570;10.084;2023-05-15T03:05:48;15.53;;;8.53;;
70560;SDS011;58109;53.570;10.084;2023-05-15T03:08:15;12.47;;;8.30;;
70560;SDS011;58109;53.570;10.084;2023-05-15T03:10:41;17.87;;;9.13;;
70560;SDS011;58109;53.570;10.084;2023-05-15T03:13:06;22.80;;;8.83;;
70560;SDS011;58109;53.570;10.084;2023-05-15T03:15:32;15.83;;;9.00;;
70560;SDS011;58109;53.570;10.084;2023-05-15T03:18:00;15.63;;;8.60;;
70560;SDS011;58109;53.570;10.084;2023-05-15T03:20:27;19.33;;;9.73;;
70560;SDS011;58109;53.570;10.084;2023-05-15T03:22:55;13.57;;;8.43;;
70560;SDS011;58109;53.570;10.084;2023-05-15T03:25:21;20.50;;;9.87;;
70560;SDS011;58109;53.570;10.084;2023-05-15T03:27:48;13.40;;;9.53;;
70560;SDS011;58109;53.570;10.084;2023-05-15T03:30:14;14.93;;;9.73;;
70560;SDS011;58109;53.570;10.084;2023-05-15T03:32:42;15.90;;;9.20;;
70560;SDS011;58109;53.570;10.084;2023-05-15T03:35:07;15.47;;;9.03;;
70560;SDS011;58109;53.570;10.084;2023-05-15T03:37:33;18.60;;;9.43;;
70560;SDS011;58109;53.570;10.084;2023-05-15T03:39:58;17.27;;;9.27;;
70560;SDS011;58109;53.570;10.084;2023-05-15T03:42:26;15.23;;;9.53;;
70560;SDS011;58109;53.570;10.084;2023-05-15T03:44:53;21.20;;;10.17;;
70560;SDS011;58109;53.570;10.084;2023-05-15T03:47:20;18.97;;;9.40;;
70560;SDS011;58109;53.570;10.084;2023-05-15T03:49:45;19.00;;;10.13;;
70560;SDS011;58109;53.570;10.084;2023-05-15T03:52:15;17.00;;;9.40;;
70560;SDS011;58109;53.570;10.084;2023-05-15T03:54:43;18.53;;;9.77;;
70560;SDS011;58109;53.570;10.084;2023-05-15T03:57:08;19.63;;;10.20;;
70560;SDS011;58109;53.570;10.084;2023-05-15T03:59:33;13.93;;;9.53;;
70560;SDS011;58109;53.570;10.084;2023-05-15T04:01:59;24.23;;;10.73;;
70560;SDS011;58109;53.570;10.084;2023-05-15T04:04:24;23.20;;;10.43;;
70560;SDS011;58109;53.570;10.084;2023-05-15T04:06:50;16.40;;;9.93;;
70560;SDS011;58109;53.570;10.084;2023-05-15T04:09:15;28.03;;;11.20;;
70560;SDS011;58109;53.570;10.084;2023-05-15T04:11:41;20.67;;;11.90;;
70560;SDS011;58109;53.570;10.084;2023-05-15T04:14:06;19.43;;;11.50;;
70560;SDS011;58109;53.570;10.084;2023-05-15T04:16:40;27.13;;;12.07;;
70560;SDS011;58109;53.570;10.084;2023-05-15T04:19:08;22.20;;;12.13;;
70560;SDS011;58109;53.570;10.084;2023-05-15T04:21:36;22.77;;;11.57;;
70560;SDS011;58109;53.570;10.084;2023-05-15T04:24:01;26.63;;;12.93;;
70560;SDS011;58109;53.570;10.084;2023-05-15T04:26:27;21.70;;;11.77;;
70560;SDS011;58109;53.570;10.084;2023-05-15T04:28:55;19.93;;;11.50;;
70560;SDS011;58109;53.570;10.084;2023-05-15T04:31:21;19.03;;;11.00;;
70560;SDS011;58109;53.570;10.084;2023-05-15T04:33:46;23.50;;;13.00;;
70560;SDS011;58109;53.570;10.084;2023-05-15T04:36:12;22.50;;;12.60;;
70560;SDS011;58109;53.570;10.084;2023-05-15T04:38:37;22.57;;;12.30;;
70560;SDS011;58109;53.570;10.084;2023-05-15T04:41:03;17.73;;;11.67;;
70560;SDS011;58109;53.570;10.084;2023-05-15T04:43:31;17.33;;;12.70;;
70560;SDS011;58109;53.570;10.084;2023-05-15T04:46:01;20.43;;;11.93;;
70560;SDS011;58109;53.570;10.084;2023-05-15T04:48:26;19.00;;;12.13;;
70560;SDS011;58109;53.570;10.084;2023-05-15T04:50:52;25.63;;;13.00;;
70560;SDS011;58109;53.570;10.084;2023-05-15T04:53:17;22.80;;;13.00;;
70560;SDS011;58109;53.570;10.084;2023-05-15T04:55:43;21.67;;;13.10;;
70560;SDS011;58109;53.570;10.084;2023-05-15T04:58:08;26.27;;;12.00;;
70560;SDS011;58109;53.570;10.084;2023-05-15T05:00:33;26.30;;;13.47;;
70560;SDS011;58109;53.570;10.084;2023-05-15T05:02:59;25.83;;;13.13;;
70560;SDS011;58109;53.570;10.084;2023-05-15T05:05:26;23.93;;;12.70;;
70560;SDS011;58109;53.570;10.084;2023-05-15T05:07:54;21.00;;;11.27;;
70560;SDS011;58109;53.570;10.084;2023-05-15T05:10:22;24.60;;;13.83;;
70560;SDS011;58109;53.570;10.084;2023-05-15T05:12:48;18.73;;;11.53;;
70560;SDS011;58109;53.570;10.084;2023-05-15T05:15:13;20.27;;;12.40;;
70560;SDS011;58109;53.570;10.084;2023-05-15T05:17:39;26.10;;;13.10;;
70560;SDS011;58109;53.570;10.084;2023-05-15T05:20:06;39.70;;;12.30;;
70560;SDS011;58109;53.570;10.084;2023-05-15T05:22:34;19.93;;;12.60;;
70560;SDS011;58109;53.570;10.084;2023-05-15T05:25:02;18.53;;;11.87;;
70560;SDS011;58109;53.570;10.084;2023-05-15T05:27:28;18.97;;;11.23;;
70560;SDS011;58109;53.570;10.084;2023-05-15T05:29:56;21.33;;;12.07;;
70560;SDS011;58109;53.570;10.084;2023-05-15T05:32:21;26.97;;;17.10;;
70560;SDS011;58109;53.570;10.084;2023-05-15T05:34:47;21.23;;;14.87;;
70560;SDS011;58109;53.570;10.084;2023-05-15T05:37:12;22.77;;;16.47;;
70560;SDS011;58109;53.570;10.084;2023-05-15T05:39:37;39.63;;;26.33;;
70560;SDS011;58109;53.570;10.084;2023-05-15T05:42:05;143.57;;;52.03;;
70560;SDS011;58109;53.570;10.084;2023-05-15T05:44:31;225.27;;;65.17;;
70560;SDS011;58109;53.570;10.084;2023-05-15T05:47:00;72.23;;;34.33;;
70560;SDS011;58109;53.570;10.084;2023-05-15T05:49:28;34.67;;;25.03;;
70560;SDS011;58109;53.570;10.084;2023-05-15T05:51:53;29.50;;;24.33;;
70560;SDS011;58109;53.570;10.084;2023-05-15T05:54:19;39.43;;;27.00;;
70560;SDS011;58109;53.570;10.084;2023-05-15T05:56:44;15.10;;;9.27;;
70560;SDS011;58109;53.570;10.084;2023-05-15T05:59:12;17.30;;;8.40;;
70560;SDS011;58109;53.570;10.084;2023-05-15T06:01:37;16.10;;;9.63;;
70560;SDS011;58109;53.570;10.084;2023-05-15T06:04:03;20.33;;;8.53;;
70560;SDS011;58109;53.570;10.084;2023-05-15T06:06:28;16.70;;;7.97;;
70560;SDS011;58109;53.570;10.084;2023-05-15T06:08:56;15.63;;;9.27;;
70560;SDS011;58109;53.570;10.084;2023-05-15T06:11:21;20.57;;;8.70;;
70560;SDS011;58109;53.570;10.084;2023-05-15T06:13:47;18.10;;;8.03;;
70560;SDS011;58109;53.570;10.084;2023-05-15T06:16:15;16.13;;;7.80;;
70560;SDS011;58109;53.570;10.084;2023-05-15T06:18:45;13.07;;;8.07;;
70560;SDS011;58109;53.570;10.084;2023-05-15T06:21:16;15.70;;;11.13;;
70560;SDS011;58109;53.570;10.084;2023-05-15T06:23:44;12.10;;;7.07;;
70560;SDS011;58109;53.570;10.084;2023-05-15T06:26:09;12.37;;;8.03;;
70560;SDS011;58109;53.570;10.084;2023-05-15T06:28:35;11.10;;;6.63;;
70560;SDS011;58109;53.570;10.084;2023-05-15T06:31:00;12.97;;;8.23;;
70560;SDS011;58109;53.570;10.084;2023-05-15T06:33:26;17.00;;;8.90;;
70560;SDS011;58109;53.570;10.084;2023-05-15T06:35:51;10.73;;;7.43;;
70560;SDS011;58109;53.570;10.084;2023-05-15T06:38:17;11.33;;;6.87;;
70560;SDS011;58109;53.570;10.084;2023-05-15T06:40:42;12.23;;;7.30;;
70560;SDS011;58109;53.570;10.084;2023-05-15T06:43:07;12.63;;;6.80;;
70560;SDS011;58109;53.570;10.084;2023-05-15T06:45:33;8.43;;;5.77;;
70560;SDS011;58109;53.570;10.084;2023-05-15T06:48:01;8.43;;;5.33;;
70560;SDS011;58109;53.570;10.084;2023-05-15T06:50:29;8.13;;;5.60;;
70560;SDS011;58109;53.570;10.084;2023-05-15T06:52:57;7.77;;;5.00;;
70560;SDS011;58109;53.570;10.084;2023-05-15T06:55:24;14.17;;;5.30;;
70560;SDS011;58109;53.570;10.084;2023-05-15T06:57:50;12.43;;;6.40;;
70560;SDS011;58109;53.570;10.084;2023-05-15T07:00:15;20.60;;;5.67;;
70560;SDS011;58109;53.570;10.084;2023-05-15T07:02:43;10.77;;;5.23;;
70560;SDS011;58109;53.570;10.084;2023-05-15T07:05:08;6.20;;;4.30;;
70560;SDS011;58109;53.570;10.084;2023-05-15T07:07:37;9.50;;;4.47;;
70560;SDS011;58109;53.570;10.084;2023-05-15T07:10:02;10.53;;;5.20;;
70560;SDS011;58109;53.570;10.084;2023-05-15T07:12:30;7.73;;;4.90;;
70560;SDS011;58109;53.570;10.084;2023-05-15T07:14:57;7.83;;;4.17;;
70560;SDS011;58109;53.570;10.084;2023-05-15T07:17:24;6.63;;;3.60;;
70560;SDS011;58109;53.570;10.084;2023-05-15T07:19:52;6.27;;;3.63;;
70560;SDS011;58109;53.570;10.084;2023-05-15T07:22:18;12.37;;;4.00;;
70560;SDS011;58109;53.570;10.084;2023-05-15T07:24:43;10.63;;;3.40;;
70560;SDS011;58109;53.570;10.084;2023-05-15T07:27:09;15.30;;;3.90;;
70560;SDS011;58109;53.570;10.084;2023-05-15T07:29:34;13.83;;;3.87;;
70560;SDS011;58109;53.570;10.084;2023-05-15T07:32:02;9.03;;;3.77;;
70560;SDS011;58109;53.570;10.084;2023-05-15T07:34:27;4.90;;;3.57;;
70560;SDS011;58109;53.570;10.084;2023-05-15T07:36:52;7.50;;;3.60;;
70560;SDS011;58109;53.570;10.084;2023-05-15T07:39:18;9.23;;;3.40;;
70560;SDS011;58109;53.570;10.084;2023-05-15T07:41:43;6.00;;;2.93;;
70560;SDS011;58109;53.570;10.084;2023-05-15T07:44:11;14.10;;;3.37;;
70560;SDS011;58109;53.570;10.084;2023-05-15T07:46:37;4.40;;;3.43;;
70560;SDS011;58109;53.570;10.084;2023-05-15T07:49:03;9.87;;;3.33;;
70560;SDS011;58109;53.570;10.084;2023-05-15T07:51:30;7.80;;;3.00;;
70560;SDS011;58109;53.570;10.084;2023-05-15T07:53:55;5.53;;;2.90;;
70560;SDS011;58109;53.570;10.084;2023-05-15T07:56:21;9.23;;;3.47;;
70560;SDS011;58109;53.570;10.084;2023-05-15T07:58:47;6.57;;;3.10;;
70560;SDS011;58109;53.570;10.084;2023-05-15T08:01:15;6.00;;;4.07;;
70560;SDS011;58109;53.570;10.084;2023-05-15T08:03:40;9.30;;;3.20;;
70560;SDS011;58109;53.570;10.084;2023-05-15T08:06:06;4.83;;;2.87;;
70560;SDS011;58109;53.570;10.084;2023-05-15T08:08:32;4.83;;;2.80;;
70560;SDS011;58109;53.570;10.084;2023-05-15T08:10:58;7.50;;;4.30;;
70560;SDS011;58109;53.570;10.084;2023-05-15T08:13:23;6.10;;;3.83;;
70560;SDS011;58109;53.570;10.084;2023-05-15T08:15:51;19.07;;;4.90;;
70560;SDS011;58109;53.570;10.084;2023-05-15T08:18:21;17.33;;;6.13;;
70560;SDS011;58109;53.570;10.084;2023-05-15T08:20:48;7.20;;;4.80;;
70560;SDS011;58109;53.570;10.084;2023-05-15T08:23:16;3.63;;;2.70;;
70560;SDS011;58109;53.570;10.084;2023-05-15T08:25:41;6.53;;;3.50;;
70560;SDS011;58109;53.570;10.084;2023-05-15T08:28:07;4.30;;;2.83;;
70560;SDS011;58109;53.570;10.084;2023-05-15T08:30:35;9.80;;;2.97;;
70560;SDS011;58109;53.570;10.084;2023-05-15T08:33:03;11.63;;;3.07;;
70560;SDS011;58109;53.570;10.084;2023-05-15T08:35:30;9.30;;;2.67;;
70560;SDS011;58109;53.570;10.084;2023-05-15T08:37:56;9.17;;;3.60;;
70560;SDS011;58109;53.570;10.084;2023-05-15T08:40:27;10.10;;;4.63;;
70560;SDS011;58109;53.570;10.084;2023-05-15T08:42:53;6.50;;;2.40;;
70560;SDS011;58109;53.570;10.084;2023-05-15T08:45:19;7.67;;;3.80;;
70560;SDS011;58109;53.570;10.084;2023-05-15T08:47:45;9.10;;;4.20;;
70560;SDS011;58109;53.570;10.084;2023-05-15T08:50:11;5.80;;;3.90;;
70560;SDS011;58109;53.570;10.084;2023-05-15T08:52:43;3.20;;;2.43;;
70560;SDS011;58109;53.570;10.084;2023-05-15T08:55:10;6.10;;;2.63;;
70560;SDS011;58109;53.570;10.084;2023-05-15T08:57:37;16.00;;;3.00;;
70560;SDS011;58109;53.570;10.084;2023-05-15T09:00:03;5.87;;;2.60;;
70560;SDS011;58109;53.570;10.084;2023-05-15T09:02:38;6.63;;;2.67;;
70560;SDS011;58109;53.570;10.084;2023-05-15T09:05:04;2.60;;;2.30;;
70560;SDS011;58109;53.570;10.084;2023-05-15T09:07:33;10.60;;;2.50;;
70560;SDS011;58109;53.570;10.084;2023-05-15T09:10:01;3.37;;;2.70;;
70560;SDS011;58109;53.570;10.084;2023-05-15T09:12:27;5.40;;;3.40;;
70560;SDS011;58109;53.570;10.084;2023-05-15T09:15:07;2.90;;;2.50;;
70560;SDS011;58109;53.570;10.084;2023-05-15T09:17:32;5.20;;;3.07;;
70560;SDS011;58109;53.570;10.084;2023-05-15T09:19:58;5.43;;;2.40;;
70560;SDS011;58109;53.570;10.084;2023-05-15T09:22:23;6.13;;;2.97;;
70560;SDS011;58109;53.570;10.084;2023-05-15T09:24:50;3.43;;;2.97;;
70560;SDS011;58109;53.570;10.084;2023-05-15T09:27:17;4.30;;;3.13;;
70560;SDS011;58109;53.570;10.084;2023-05-15T09:29:45;4.03;;;2.83;;
70560;SDS011;58109;53.570;10.084;2023-05-15T09:32:11;10.43;;;3.50;;
70560;SDS011;58109;53.570;10.084;2023-05-15T09:34:38;5.50;;;3.30;;
70560;SDS011;58109;53.570;10.084;2023-05-15T09:37:06;11.03;;;3.43;;
70560;SDS011;58109;53.570;10.084;2023-05-15T09:39:38;5.50;;;2.87;;
70560;SDS011;58109;53.570;10.084;2023-05-15T09:42:05;15.43;;;2.53;;
70560;SDS011;58109;53.570;10.084;2023-05-15T09:44:32;4.30;;;2.90;;
70560;SDS011;58109;53.570;10.084;2023-05-15T09:46:58;3.47;;;2.73;;
70560;SDS011;58109;53.570;10.084;2023-05-15T09:49:26;3.80;;;2.90;;
70560;SDS011;58109;53.570;10.084;2023-05-15T09:51:53;4.63;;;2.33;;
70560;SDS011;58109;53.570;10.084;2023-05-15T09:54:19;3.50;;;2.50;;
70560;SDS011;58109;53.570;10.084;2023-05-15T09:56:47;3.00;;;2.23;;
70560;SDS011;58109;53.570;10.084;2023-05-15T09:59:13;5.73;;;3.30;;
70560;SDS011;58109;53.570;10.084;2023-05-15T10:01:42;5.80;;;2.57;;
70560;SDS011;58109;53.570;10.084;2023-05-15T10:04:11;19.53;;;9.13;;
70560;SDS011;58109;53.570;10.084;2023-05-15T10:06:40;10.17;;;4.13;;
70560;SDS011;58109;53.570;10.084;2023-05-15T10:09:06;2.87;;;2.53;;
70560;SDS011;58109;53.570;10.084;2023-05-15T10:11:33;4.40;;;3.27;;
70560;SDS011;58109;53.570;10.084;2023-05-15T10:14:00;9.00;;;2.67;;
70560;SDS011;58109;53.570;10.084;2023-05-15T10:16:38;5.90;;;2.80;;
70560;SDS011;58109;53.570;10.084;2023-05-15T10:19:05;4.87;;;2.60;;
70560;SDS011;58109;53.570;10.084;2023-05-15T10:21:35;7.30;;;3.00;;
70560;SDS011;58109;53.570;10.084;2023-05-15T10:24:05;4.40;;;2.80;;
70560;SDS011;58109;53.570;10.084;2023-05-15T10:29:10;8.13;;;2.93;;
70560;SDS011;58109;53.570;10.084;2023-05-15T10:31:39;5.53;;;3.70;;
70560;SDS011;58109;53.570;10.084;2023-05-15T10:34:07;6.40;;;3.07;;
70560;SDS011;58109;53.570;10.084;2023-05-15T10:36:36;3.57;;;2.90;;
70560;SDS011;58109;53.570;10.084;2023-05-15T10:39:02;8.37;;;3.50;;
70560;SDS011;58109;53.570;10.084;2023-05-15T10:41:32;11.43;;;2.70;;
70560;SDS011;58109;53.570;10.084;2023-05-15T10:44:04;5.97;;;3.20;;
70560;SDS011;58109;53.570;10.084;2023-05-15T10:46:32;7.13;;;2.80;;
70560;SDS011;58109;53.570;10.084;2023-05-15T10:48:59;5.43;;;3.13;;
70560;SDS011;58109;53.570;10.084;2023-05-15T10:51:31;5.20;;;2.70;;
70560;SDS011;58109;53.570;10.084;2023-05-15T10:54:00;6.37;;;3.17;;
70560;SDS011;58109;53.570;10.084;2023-05-15T10:56:36;7.20;;;3.07;;
70560;SDS011;58109;53.570;10.084;2023-05-15T10:59:05;3.80;;;2.90;;
70560;SDS011;58109;53.570;10.084;2023-05-15T11:01:34;6.20;;;3.47;;
70560;SDS011;58109;53.570;10.084;2023-05-15T11:06:35;9.37;;;3.27;;
70560;SDS011;58109;53.570;10.084;2023-05-15T11:19:22;4.30;;;2.40;;
70560;SDS011;58109;53.570;10.084;2023-05-15T11:22:02;11.70;;;3.20;;
70560;SDS011;58109;53.570;10.084;2023-05-15T11:24:31;4.70;;;2.47;;
70560;SDS011;58109;53.570;10.084;2023-05-15T11:27:01;3.87;;;2.43;;
70560;SDS011;58109;53.570;10.084;2023-05-15T11:29:28;3.10;;;2.80;;
70560;SDS011;58109;53.570;10.084;2023-05-15T11:31:56;3.43;;;2.57;;
70560;SDS011;58109;53.570;10.084;2023-05-15T11:34:30;8.33;;;2.97;;
70560;SDS011;58109;53.570;10.084;2023-05-15T11:36:59;4.67;;;2.80;;
70560;SDS011;58109;53.570;10.084;2023-05-15T11:39:25;4.63;;;2.90;;
70560;SDS011;58109;53.570;10.084;2023-05-15T11:41:52;3.87;;;2.43;;
70560;SDS011;58109;53.570;10.084;2023-05-15T11:44:20;9.13;;;2.70;;
70560;SDS011;58109;53.570;10.084;2023-05-15T11:46:51;4.70;;;2.70;;
70560;SDS011;58109;53.570;10.084;2023-05-15T11:49:20;12.70;;;3.33;;
70560;SDS011;58109;53.570;10.084;2023-05-15T11:51:47;6.17;;;3.13;;
70560;SDS011;58109;53.570;10.084;2023-05-15T11:54:15;6.87;;;3.30;;
70560;SDS011;58109;53.570;10.084;2023-05-15T11:56:43;3.97;;;2.90;;
70560;SDS011;58109;53.570;10.084;2023-05-15T11:59:11;4.13;;;2.77;;
70560;SDS011;58109;53.570;10.084;2023-05-15T12:01:42;10.20;;;3.17;;
70560;SDS011;58109;53.570;10.084;2023-05-15T12:04:13;3.90;;;2.90;;
70560;SDS011;58109;53.570;10.084;2023-05-15T12:06:41;2.97;;;2.73;;
70560;SDS011;58109;53.570;10.084;2023-05-15T12:09:26;3.30;;;2.67;;
70560;SDS011;58109;53.570;10.084;2023-05-15T12:11:53;2.47;;;2.27;;
70560;SDS011;58109;53.570;10.084;2023-05-15T12:14:28;4.80;;;3.03;;
70560;SDS011;58109;53.570;10.084;2023-05-15T12:16:58;6.93;;;2.73;;
70560;SDS011;58109;53.570;10.084;2023-05-15T12:19:28;10.13;;;3.03;;
70560;SDS011;58109;53.570;10.084;2023-05-15T12:21:53;8.03;;;3.30;;
70560;SDS011;58109;53.570;10.084;2023-05-15T12:24:19;4.23;;;2.97;;
70560;SDS011;58109;53.570;10.084;2023-05-15T12:26:44;2.90;;;2.70;;
70560;SDS011;58109;53.570;10.084;2023-05-15T12:29:10;4.00;;;3.17;;
70560;SDS011;58109;53.570;10.084;2023-05-15T12:31:36;7.00;;;3.60;;
70560;SDS011;58109;53.570;10.084;2023-05-15T12:34:02;7.00;;;3.10;;
70560;SDS011;58109;53.570;10.084;2023-05-15T12:36:28;8.47;;;3.17;;
70560;SDS011;58109;53.570;10.084;2023-05-15T12:38:58;6.67;;;2.87;;
70560;SDS011;58109;53.570;10.084;2023-05-15T12:41:30;9.07;;;3.40;;
70560;SDS011;58109;53.570;10.084;2023-05-15T12:43:55;4.47;;;2.70;;
70560;SDS011;58109;53.570;10.084;2023-05-15T12:46:29;9.07;;;2.57;;
70560;SDS011;58109;53.570;10.084;2023-05-15T12:48:58;3.47;;;2.30;;
70560;SDS011;58109;53.570;10.084;2023-05-15T12:51:23;8.23;;;3.10;;
70560;SDS011;58109;53.570;10.084;2023-05-15T12:53:52;6.33;;;2.90;;
70560;SDS011;58109;53.570;10.084;2023-05-15T12:56:18;9.93;;;3.60;;
70560;SDS011;58109;53.570;10.084;2023-05-15T12:58:43;4.73;;;2.87;;
70560;SDS011;58109;53.570;10.084;2023-05-15T13:01:11;8.07;;;3.70;;
70560;SDS011;58109;53.570;10.084;2023-05-15T13:03:41;12.60;;;4.83;;
70560;SDS011;58109;53.570;10.084;2023-05-15T13:06:06;8.10;;;4.73;;
70560;SDS011;58109;53.570;10.084;2023-05-15T13:08:37;8.97;;;5.73;;
70560;SDS011;58109;53.570;10.084;2023-05-15T13:11:09;9.50;;;6.50;;
70560;SDS011;58109;53.570;10.084;2023-05-15T13:13:42;15.90;;;7.80;;
70560;SDS011;58109;53.570;10.084;2023-05-15T13:16:22;20.10;;;9.13;;
70560;SDS011;58109;53.570;10.084;2023-05-15T13:18:53;20.50;;;9.13;;
70560;SDS011;58109;53.570;10.084;2023-05-15T13:21:23;25.00;;;8.20;;
70560;SDS011;58109;53.570;10.084;2023-05-15T13:23:50;14.67;;;9.37;;
70560;SDS011;58109;53.570;10.084;2023-05-15T13:26:18;14.90;;;7.03;;
70560;SDS011;58109;53.570;10.084;2023-05-15T13:28:44;14.23;;;7.87;;
70560;SDS011;58109;53.570;10.084;2023-05-15T13:31:09;20.30;;;8.57;;
70560;SDS011;58109;53.570;10.084;2023-05-15T13:33:35;15.40;;;7.70;;
70560;SDS011;58109;53.570;10.084;2023-05-15T13:36:01;21.37;;;8.17;;
70560;SDS011;58109;53.570;10.084;2023-05-15T13:38:26;22.57;;;7.10;;
70560;SDS011;58109;53.570;10.084;2023-05-15T13:40:55;13.00;;;6.80;;
70560;SDS011;58109;53.570;10.084;2023-05-15T13:43:20;10.30;;;5.80;;
70560;SDS011;58109;53.570;10.084;2023-05-15T13:45:46;10.57;;;5.20;;
70560;SDS011;58109;53.570;10.084;2023-05-15T13:48:11;13.03;;;6.67;;
70560;SDS011;58109;53.570;10.084;2023-05-15T13:50:36;20.50;;;7.30;;
70560;SDS011;58109;53.570;10.084;2023-05-15T13:53:03;10.53;;;6.73;;
70560;SDS011;58109;53.570;10.084;2023-05-15T13:55:28;18.60;;;7.97;;
70560;SDS011;58109;53.570;10.084;2023-05-15T13:57:59;18.70;;;9.07;;
70560;SDS011;58109;53.570;10.084;2023-05-15T14:00:25;20.17;;;10.77;;
70560;SDS011;58109;53.570;10.084;2023-05-15T14:02:52;20.00;;;10.20;;
70560;SDS011;58109;53.570;10.084;2023-05-15T14:05:18;15.43;;;7.50;;
70560;SDS011;58109;53.570;10.084;2023-05-15T14:07:46;16.53;;;7.30;;
70560;SDS011;58109;53.570;10.084;2023-05-15T14:10:11;25.93;;;9.70;;
70560;SDS011;58109;53.570;10.084;2023-05-15T14:12:37;23.13;;;10.53;;
70560;SDS011;58109;53.570;10.084;2023-05-15T14:15:05;19.43;;;10.90;;
70560;SDS011;58109;53.570;10.084;2023-05-15T14:17:31;18.13;;;10.17;;
70560;SDS011;58109;53.570;10.084;2023-05-15T14:19:56;13.30;;;9.90;;
70560;SDS011;58109;53.570;10.084;2023-05-15T14:22:26;17.67;;;10.20;;
70560;SDS011;58109;53.570;10.084;2023-05-15T14:24:52;15.60;;;9.70;;
70560;SDS011;58109;53.570;10.084;2023-05-15T14:27:18;21.33;;;10.53;;
70560;SDS011;58109;53.570;10.084;2023-05-15T14:29:43;20.70;;;11.03;;
70560;SDS011;58109;53.570;10.084;2023-05-15T14:32:09;16.90;;;11.17;;
70560;SDS011;58109;53.570;10.084;2023-05-15T14:34:36;15.80;;;10.33;;
70560;SDS011;58109;53.570;10.084;2023-05-15T14:37:02;24.93;;;11.57;;
70560;SDS011;58109;53.570;10.084;2023-05-15T14:39:30;38.83;;;17.87;;
70560;SDS011;58109;53.570;10.084;2023-05-15T14:41:58;19.53;;;12.73;;
70560;SDS011;58109;53.570;10.084;2023-05-15T14:44:23;19.33;;;12.43;;
70560;SDS011;58109;53.570;10.084;2023-05-15T14:47:03;19.97;;;11.57;;
70560;SDS011;58109;53.570;10.084;2023-05-15T14:49:36;21.87;;;11.03;;
70560;SDS011;58109;53.570;10.084;2023-05-15T14:52:02;22.13;;;11.70;;